Time;durP1;ratioP1;P1;durP2;ratioP2;P2;SDS_P1;SDS_P2;PMS_P1;PMS_P2;Temp;Humidity;BMP_temperature;BMP_pressure;BME280_temperature;BME280_humidity;BME280_pressure;Samples;Min_cycle;Max_cycle;Signal;HPM_P1;HPM_P2
2023/09/05 00:01:03;;;;;;;;;;;;;;;23.26;nan;102633.72;5063872;28;19967;-86
2023/09/05 00:03:31;;;;;;;;;;;;;;;23.21;nan;102627.22;5065853;28;19916;-85
2023/09/05 00:06:10;;;;;;;;;;;;;;;23.22;nan;102619.81;5063964;28;20379;-85
2023/09/05 00:08:36;;;;;;;;;;;;;;;23.18;nan;102619.59;5061742;28;20146;-85
2023/09/05 00:11:01;;;;;;;;;;;;;;;23.18;nan;102627.78;5062069;28;19923;-85
2023/09/05 00:13:27;;;;;;;;;;;;;;;23.16;nan;102620.94;5059371;28;19946;-85
2023/09/05 00:15:52;;;;;;;;;;;;;;;23.15;nan;102617.41;5067016;28;19924;-86
2023/09/05 00:18:18;;;;;;;;;;;;;;;23.11;nan;102630.03;5058672;28;20007;-85
2023/09/05 00:20:45;;;;;;;;;;;;;;;23.08;nan;102627.88;5057583;28;20498;-85
2023/09/05 00:23:10;;;;;;;;;;;;;;;23.05;nan;102628.44;5064223;28;19917;-85
2023/09/05 00:25:35;;;;;;;;;;;;;;;22.97;nan;102615.38;5062303;28;20335;-86
2023/09/05 00:28:03;;;;;;;;;;;;;;;22.93;nan;102619.78;5058785;28;19947;-85
2023/09/05 00:30:28;;;;;;;;;;;;;;;22.89;nan;102610.53;5065044;28;19992;-85
2023/09/05 00:32:53;;;;;;;;;;;;;;;22.87;nan;102605.38;5062201;28;20379;-86
2023/09/05 00:35:19;;;;;;;;;;;;;;;22.86;nan;102606.47;5063859;28;20392;-86
2023/09/05 00:37:45;;;;;;;;;;;;;;;22.82;nan;102608.16;5069170;28;20123;-85
2023/09/05 00:40:11;;;;;;;;;;;;;;;22.79;nan;102596.91;5058036;28;19971;-86
2023/09/05 00:42:36;;;;;;;;;;;;;;;22.77;nan;102591.75;5059486;28;20398;-85
2023/09/05 00:45:02;;;;;;;;;;;;;;;22.73;nan;102596.16;5065439;28;19931;-85
2023/09/05 00:47:28;;;;;;;;;;;;;;;22.71;nan;102590.16;5058898;28;19924;-86
2023/09/05 00:49:54;;;;;;;;;;;;;;;22.71;nan;102597.53;5062364;28;19916;-85
2023/09/05 00:52:19;;;;;;;;;;;;;;;22.68;nan;102600.84;5060959;28;19923;-85
2023/09/05 00:54:45;;;;;;;;;;;;;;;22.65;nan;102595.97;5057338;28;19928;-86
2023/09/05 00:57:14;;;;;;;;;;;;;;;22.62;nan;102589.13;5064149;28;19943;-86
2023/09/05 00:59:39;;;;;;;;;;;;;;;22.58;nan;102590.78;5062933;28;19925;-85
2023/09/05 01:02:05;;;;;;;;;;;;;;;22.55;nan;102589.47;5065115;28;20406;-86
2023/09/05 01:04:33;;;;;;;;;;;;;;;22.53;nan;102593.56;5062098;28;19963;-86
2023/09/05 01:06:58;;;;;;;;;;;;;;;22.46;nan;102588.44;5061167;28;19920;-86
2023/09/05 01:09:42;;;;;;;;;;;;;;;22.42;nan;102581.88;5064043;28;19916;-85
2023/09/05 01:12:08;;;;;;;;;;;;;;;22.39;nan;102590.66;5063725;28;19920;-86
2023/09/05 01:14:33;;;;;;;;;;;;;;;22.35;nan;102578.69;5060523;28;20422;-86
2023/09/05 01:17:01;;;;;;;;;;;;;;;;;;5068282;28;19993;-85
2023/09/05 01:19:28;;;;;;;;;;;;;;;;;;5057922;28;19917;-86
2023/09/05 01:21:53;;;;;;;;;;;;;;;22.31;nan;102581.16;5058722;28;20061;-85
2023/09/05 01:24:20;;;;;;;;;;;;;;;22.30;nan;102584.19;5061092;28;20436;-85
2023/09/05 01:26:45;;;;;;;;;;;;;;;22.29;nan;102582.56;5061636;28;19923;-85
2023/09/05 01:29:11;;;;;;;;;;;;;;;22.28;nan;102586.38;5067755;28;19916;-85
2023/09/05 01:31:37;;;;;;;;;;;;;;;22.27;nan;102577.38;5064840;28;20384;-86
2023/09/05 01:34:02;;;;;;;;;;;;;;;22.28;nan;102586.38;5058674;28;19921;-85
2023/09/05 01:36:28;;;;;;;;;;;;;;;22.25;nan;102573.25;5060829;28;20007;-86
2023/09/05 01:38:53;;;;;;;;;;;;;;;22.22;nan;102571.91;5057519;28;20411;-86
2023/09/05 01:41:18;;;;;;;;;;;;;;;22.23;nan;102564.53;5069269;28;19916;-86
2023/09/05 01:43:43;;;;;;;;;;;;;;;22.22;nan;102574.66;5058364;28;19928;-85
2023/09/05 01:46:12;;;;;;;;;;;;;;;22.21;nan;102570.28;5055762;28;20447;-86
2023/09/05 01:48:37;;;;;;;;;;;;;;;22.19;nan;102566.22;5063760;28;19921;-85
2023/09/05 01:51:04;;;;;;;;;;;;;;;22.15;nan;102568.69;5054828;28;20381;-85
2023/09/05 01:53:29;;;;;;;;;;;;;;;22.10;nan;102571.47;5062590;28;19916;-84
2023/09/05 01:55:55;;;;;;;;;;;;;;;22.07;nan;102568.47;5054990;28;19926;-86
2023/09/05 01:58:20;;;;;;;;;;;;;;;22.02;nan;102559.19;5061244;28;20005;-85
2023/09/05 02:00:45;;;;;;;;;;;;;;;21.99;nan;102561.66;5059957;28;20315;-85
2023/09/05 02:03:11;;;;;;;;;;;;;;;21.93;nan;102558.16;5062971;28;19932;-85
2023/09/05 02:05:36;;;;;;;;;;;;;;;21.86;nan;102559.53;5060563;28;19928;-85
2023/09/05 02:08:02;;;;;;;;;;;;;;;21.83;nan;102563.63;5059524;28;20309;-85
2023/09/05 02:10:29;;;;;;;;;;;;;;;21.81;nan;102571.28;5050402;28;19924;-85
2023/09/05 02:12:55;;;;;;;;;;;;;;;21.77;nan;102569.41;5049288;28;19927;-85
2023/09/05 02:15:20;;;;;;;;;;;;;;;21.75;nan;102566.97;5053220;28;19917;-86
2023/09/05 02:17:45;;;;;;;;;;;;;;;21.75;nan;102564.25;5049102;28;19925;-85
2023/09/05 02:20:11;;;;;;;;;;;;;;;21.79;nan;102567.22;5052924;28;19935;-85
2023/09/05 02:22:36;;;;;;;;;;;;;;;21.79;nan;102570.75;5055972;28;19916;-85
2023/09/05 02:25:01;;;;;;;;;;;;;;;21.81;nan;102573.22;5062718;28;19928;-85
2023/09/05 02:27:27;;;;;;;;;;;;;;;21.77;nan;102581.16;5054886;28;20395;-85
2023/09/05 02:30:01;;;;;;;;;;;;;;;21.73;nan;102580.06;5052489;28;20019;-85
2023/09/05 02:32:29;;;;;;;;;;;;;;;21.71;nan;102579.50;5052648;28;19925;-85
2023/09/05 02:34:55;;;;;;;;;;;;;;;21.71;nan;102582.22;5051361;28;19928;-86
2023/09/05 02:37:20;;;;;;;;;;;;;;;21.70;nan;102578.69;5060503;28;20034;-85
2023/09/05 02:39:46;;;;;;;;;;;;;;;21.70;nan;102580.59;5055207;28;20353;-85
2023/09/05 02:42:11;;;;;;;;;;;;;;;21.71;nan;102582.22;5067117;28;20443;-86
2023/09/05 02:44:36;;;;;;;;;;;;;;;21.73;nan;102579.25;5062017;28;19920;-86
2023/09/05 02:47:01;;;;;;;;;;;;;;;21.71;nan;102576.78;5061706;28;20428;-85
2023/09/05 02:49:27;;;;;;;;;;;;;;;21.68;nan;102574.63;5060435;28;19962;-85
2023/09/05 02:51:52;;;;;;;;;;;;;;;21.66;nan;102579.53;5062117;28;19968;-86
2023/09/05 02:54:17;;;;;;;;;;;;;;;21.63;nan;102570.00;5058857;28;19923;-86
2023/09/05 02:56:43;;;;;;;;;;;;;;;21.62;nan;102570.28;5064730;28;19920;-85
2023/09/05 02:59:08;;;;;;;;;;;;;;;21.62;nan;102573.00;5065415;28;19920;-85
2023/09/05 03:01:34;;;;;;;;;;;;;;;21.59;nan;102568.94;5067913;28;20312;-85
2023/09/05 03:03:59;;;;;;;;;;;;;;;21.56;nan;102569.50;5067190;28;20162;-86
2023/09/05 03:06:24;;;;;;;;;;;;;;;21.55;nan;102567.03;5065393;28;19924;-85
2023/09/05 03:08:50;;;;;;;;;;;;;;;21.53;nan;102571.94;5072025;28;20383;-86
2023/09/05 03:11:16;;;;;;;;;;;;;;;21.52;nan;102581.22;5057916;28;19920;-86
2023/09/05 03:13:41;;;;;;;;;;;;;;;21.51;nan;102580.41;5066234;28;20418;-85
2023/09/05 03:16:06;;;;;;;;;;;;;;;21.48;nan;102585.59;5071717;28;20385;-86
2023/09/05 03:18:32;;;;;;;;;;;;;;;21.44;nan;102582.59;5061815;28;19915;-85
2023/09/05 03:20:57;;;;;;;;;;;;;;;21.41;nan;102591.34;5065445;28;19916;-85
2023/09/05 03:23:23;;;;;;;;;;;;;;;21.39;nan;102594.34;5064810;28;20015;-85
2023/09/05 03:25:48;;;;;;;;;;;;;;;21.40;nan;102597.91;5066782;28;19927;-85
2023/09/05 03:28:13;;;;;;;;;;;;;;;21.40;nan;102598.72;5066014;28;19920;-86
2023/09/05 03:30:40;;;;;;;;;;;;;;;21.39;nan;102599.00;5065636;28;19916;-86
2023/09/05 03:33:06;;;;;;;;;;;;;;;21.39;nan;102594.34;5062683;28;20368;-86
2023/09/05 03:35:31;;;;;;;;;;;;;;;21.38;nan;102595.44;5062048;28;19928;-85
2023/09/05 03:37:56;;;;;;;;;;;;;;;21.36;nan;102591.34;5060804;28;19924;-85
2023/09/05 03:40:22;;;;;;;;;;;;;;;21.32;nan;102595.72;5062380;28;19923;-86
2023/09/05 03:42:48;;;;;;;;;;;;;;;21.26;nan;102599.56;5064358;28;19965;-86
2023/09/05 03:45:13;;;;;;;;;;;;;;;21.23;nan;102594.63;5064514;28;20490;-86
2023/09/05 03:47:39;;;;;;;;;;;;;;;21.20;nan;102597.91;5062198;28;20868;-86
2023/09/05 03:50:04;;;;;;;;;;;;;;;21.19;nan;102596.28;5063585;28;20137;-86
2023/09/05 03:52:30;;;;;;;;;;;;;;;21.17;nan;102599.25;5066501;28;20384;-86
2023/09/05 03:54:55;;;;;;;;;;;;;;;21.19;nan;102599.81;5066298;28;20689;-86
2023/09/05 03:57:20;;;;;;;;;;;;;;;21.17;nan;102601.16;5062592;28;19944;-86
2023/09/05 03:59:46;;;;;;;;;;;;;;;21.15;nan;102606.88;5064247;28;20539;-86
2023/09/05 04:02:11;;;;;;;;;;;;;;;21.14;nan;102605.25;5064045;28;19917;-86
2023/09/05 04:04:36;;;;;;;;;;;;;;;21.11;nan;102609.34;5063106;28;20144;-86
2023/09/05 04:07:01;;;;;;;;;;;;;;;21.10;nan;102602.25;5064254;28;19924;-86
2023/09/05 04:09:27;;;;;;;;;;;;;;;21.11;nan;102600.34;5062508;28;20398;-86
2023/09/05 04:11:52;;;;;;;;;;;;;;;21.08;nan;102596.28;5063898;28;19920;-86
2023/09/05 04:17:20;;;;;;;;;;;;;;;21.02;nan;102591.94;5054314;28;19939;-86
2023/09/05 04:19:45;;;;;;;;;;;;;;;21.02;nan;102593.84;5056179;28;20857;-86
2023/09/05 04:22:11;;;;;;;;;;;;;;;21.02;nan;102596.56;5040109;28;19928;-86
2023/09/05 04:24:36;;;;;;;;;;;;;;;21.00;nan;102594.09;5026498;28;20404;-85
2023/09/05 04:27:02;;;;;;;;;;;;;;;20.97;nan;102597.34;5018975;28;19928;-86
2023/09/05 04:29:28;;;;;;;;;;;;;;;20.98;nan;102595.44;5022165;28;20328;-85
2023/09/05 04:31:53;;;;;;;;;;;;;;;20.97;nan;102589.19;5020900;28;19917;-85
2023/09/05 04:34:18;;;;;;;;;;;;;;;20.98;nan;102593.53;5019098;28;20274;-86
2023/09/05 04:36:43;;;;;;;;;;;;;;;21.01;nan;102600.38;5016565;28;20349;-85
2023/09/05 04:39:10;;;;;;;;;;;;;;;21.01;nan;102600.38;5019917;28;19917;-85
2023/09/05 04:41:35;;;;;;;;;;;;;;;21.01;nan;102595.75;5020468;28;20354;-86
2023/09/05 04:44:00;;;;;;;;;;;;;;;21.02;nan;102593.84;5021693;28;20456;-86
2023/09/05 04:46:33;;;;;;;;;;;;;;;21.01;nan;102595.75;5020868;28;20412;-85
2023/09/05 04:49:03;;;;;;;;;;;;;;;21.02;nan;102596.56;5016996;28;20159;-86
2023/09/05 04:51:28;;;;;;;;;;;;;;;21.02;nan;102596.56;5017660;28;19921;-85
2023/09/05 04:53:53;;;;;;;;;;;;;;;21.02;nan;102591.13;5020786;28;19963;-86
2023/09/05 04:56:20;;;;;;;;;;;;;;;21.03;nan;102584.56;5022255;28;19921;-85
2023/09/05 04:58:45;;;;;;;;;;;;;;;21.03;nan;102585.38;5019221;28;19929;-85
2023/09/05 05:01:11;;;;;;;;;;;;;;;21.06;nan;102582.09;5016526;28;19917;-86
2023/09/05 05:03:36;;;;;;;;;;;;;;;21.09;nan;102584.28;5018660;28;19925;-86
2023/09/05 05:06:03;;;;;;;;;;;;;;;21.14;nan;102578.00;5016728;28;20389;-86
2023/09/05 05:08:28;;;;;;;;;;;;;;;21.20;nan;102581.56;5014520;28;20373;-85
2023/09/05 05:10:54;;;;;;;;;;;;;;;21.25;nan;102576.94;5016550;28;19918;-85
2023/09/05 05:13:20;;;;;;;;;;;;;;;21.32;nan;102571.19;5016817;28;20373;-86
2023/09/05 05:15:47;;;;;;;;;;;;;;;21.39;nan;102578.00;5020040;28;19925;-86
2023/09/05 05:18:12;;;;;;;;;;;;;;;21.48;nan;102575.50;5006101;28;19922;-85
2023/09/05 05:20:38;;;;;;;;;;;;;;;21.56;nan;102579.59;5010195;28;20020;-85
2023/09/05 05:23:04;;;;;;;;;;;;;;;21.65;nan;102584.19;5016379;28;20385;-85
2023/09/05 05:25:29;;;;;;;;;;;;;;;21.76;nan;102584.97;5021093;28;20447;-85
2023/09/05 05:27:54;;;;;;;;;;;;;;;21.84;nan;102576.19;5015006;28;19929;-85
2023/09/05 05:30:20;;;;;;;;;;;;;;;21.94;nan;102576.16;5016375;28;20357;-85
2023/09/05 05:32:46;;;;;;;;;;;;;;;22.05;nan;102585.13;5017867;28;20092;-85
2023/09/05 05:35:11;;;;;;;;;;;;;;;22.16;nan;102577.69;5016910;28;20390;-84
2023/09/05 05:37:37;;;;;;;;;;;;;;;22.26;nan;102569.44;5019605;28;19971;-83
2023/09/05 05:40:02;;;;;;;;;;;;;;;22.35;nan;102575.94;5016768;28;19956;-84
2023/09/05 05:42:27;;;;;;;;;;;;;;;22.47;nan;102573.69;5018635;28;20011;-84
2023/09/05 05:44:55;;;;;;;;;;;;;;;22.56;nan;102571.97;5018088;28;20202;-84
2023/09/05 05:47:24;;;;;;;;;;;;;;;22.66;nan;102562.06;5018770;28;20179;-84
2023/09/05 05:49:49;;;;;;;;;;;;;;;22.79;nan;102578.59;5014815;28;20351;-84
2023/09/05 05:52:14;;;;;;;;;;;;;;;22.90;nan;102571.19;5019722;28;20013;-84
2023/09/05 05:54:41;;;;;;;;;;;;;;;23.01;nan;102575.47;5020294;28;19925;-85
2023/09/05 05:57:06;;;;;;;;;;;;;;;23.12;nan;102576.16;5016201;28;19921;-84
2023/09/05 05:59:31;;;;;;;;;;;;;;;23.23;nan;102582.34;5018376;28;19975;-84
2023/09/05 06:01:57;;;;;;;;;;;;;;;23.34;nan;102581.13;5013679;28;19925;-84
2023/09/05 06:04:23;;;;;;;;;;;;;;;23.46;nan;102578.81;5016807;28;19931;-84
2023/09/05 06:06:49;;;;;;;;;;;;;;;23.58;nan;102573.78;5012156;28;19921;-84
2023/09/05 06:09:15;;;;;;;;;;;;;;;23.73;nan;102579.06;5017357;28;20376;-85
2023/09/05 06:11:41;;;;;;;;;;;;;;;23.86;nan;102584.94;5015484;28;19921;-84
2023/09/05 06:14:06;;;;;;;;;;;;;;;23.96;nan;102582.88;5016231;28;21194;-84
2023/09/05 06:16:31;;;;;;;;;;;;;;;24.11;nan;102579.13;5016639;28;20302;-85
2023/09/05 06:19:15;;;;;;;;;;;;;;;24.25;nan;102584.69;5011242;28;19925;-84
2023/09/05 06:21:41;;;;;;;;;;;;;;;24.40;nan;102579.81;5018894;28;19921;-84
2023/09/05 06:24:06;;;;;;;;;;;;;;;24.56;nan;102585.03;5015274;28;19926;-84
2023/09/05 06:26:32;;;;;;;;;;;;;;;24.70;nan;102584.00;5017029;28;19924;-84
2023/09/05 06:28:57;;;;;;;;;;;;;;;24.85;nan;102587.59;5020372;28;20004;-84
2023/09/05 06:31:22;;;;;;;;;;;;;;;24.98;nan;102573.94;5023135;28;20470;-84
2023/09/05 06:33:47;;;;;;;;;;;;;;;25.14;nan;102573.69;5019861;28;20389;-85
2023/09/05 06:36:13;;;;;;;;;;;;;;;25.26;nan;102566.56;5024971;28;19925;-84
2023/09/05 06:38:39;;;;;;;;;;;;;;;25.37;nan;102574.63;5020239;28;20376;-84
2023/09/05 06:41:08;;;;;;;;;;;;;;;25.48;nan;102571.34;5018450;28;20003;-84
2023/09/05 06:43:34;;;;;;;;;;;;;;;25.63;nan;102578.47;5019727;28;19929;-85
2023/09/05 06:46:06;;;;;;;;;;;;;;;25.77;nan;102582.06;5016557;28;19925;-85
2023/09/05 06:48:34;;;;;;;;;;;;;;;25.94;nan;102578.66;5019220;28;20000;-84
2023/09/05 06:50:59;;;;;;;;;;;;;;;26.05;nan;102579.28;5020487;28;19921;-84
2023/09/05 06:53:28;;;;;;;;;;;;;;;26.17;nan;102568.53;5024447;28;19924;-85
2023/09/05 06:55:54;;;;;;;;;;;;;;;26.31;nan;102566.56;5018507;28;19928;-85
2023/09/05 06:58:22;;;;;;;;;;;;;;;26.45;nan;102570.09;5020624;28;19918;-85
2023/09/05 07:00:51;;;;;;;;;;;;;;;26.56;nan;102559.66;5018703;28;19921;-85
2023/09/05 07:03:16;;;;;;;;;;;;;;;26.67;nan;102566.53;5023075;28;20413;-84
2023/09/05 07:05:42;;;;;;;;;;;;;;;26.76;nan;102561.09;5021485;28;19983;-84
2023/09/05 07:08:07;;;;;;;;;;;;;;;26.89;nan;102568.44;5023388;28;20602;-84
2023/09/05 07:10:33;;;;;;;;;;;;;;;27.03;nan;102563.69;5020664;28;19920;-85
2023/09/05 07:12:58;;;;;;;;;;;;;;;27.16;nan;102567.50;5019815;28;20408;-85
2023/09/05 07:15:24;;;;;;;;;;;;;;;27.25;nan;102565.56;5019504;28;19925;-84
2023/09/05 07:17:51;;;;;;;;;;;;;;;27.42;nan;102570.34;5019109;28;20407;-84
2023/09/05 07:20:16;;;;;;;;;;;;;;;27.53;nan;102562.59;5018353;28;19917;-85
2023/09/05 07:22:41;;;;;;;;;;;;;;;27.69;nan;102563.81;5020554;28;19924;-84
2023/09/05 07:25:07;;;;;;;;;;;;;;;27.85;nan;102556.72;5023646;28;19921;-85
2023/09/05 07:27:32;;;;;;;;;;;;;;;28.02;nan;102563.38;5021700;28;19991;-85
2023/09/05 07:29:58;;;;;;;;;;;;;;;28.13;nan;102564.69;5016294;28;19928;-85
2023/09/05 07:32:23;;;;;;;;;;;;;;;28.19;nan;102566.97;5018742;28;19936;-85
2023/09/05 07:34:49;;;;;;;;;;;;;;;28.22;nan;102562.75;5015124;28;20337;-84
2023/09/05 07:37:15;;;;;;;;;;;;;;;28.20;nan;102560.31;5018061;28;19928;-85
2023/09/05 07:39:43;;;;;;;;;;;;;;;28.24;nan;102563.22;5018131;28;20397;-86
2023/09/05 07:42:08;;;;;;;;;;;;;;;28.29;nan;102563.09;5020379;28;19925;-85
2023/09/05 07:44:33;;;;;;;;;;;;;;;28.39;nan;102557.25;5016253;28;19937;-85
2023/09/05 07:46:58;;;;;;;;;;;;;;;28.49;nan;102556.09;5014352;28;20521;-85
2023/09/05 07:49:24;;;;;;;;;;;;;;;28.57;nan;102558.84;5021644;28;19963;-85
2023/09/05 07:51:50;;;;;;;;;;;;;;;28.72;nan;102557.50;5017362;28;20380;-85
2023/09/05 07:54:17;;;;;;;;;;;;;;;28.84;nan;102560.41;5020122;28;19921;-85
2023/09/05 07:56:42;;;;;;;;;;;;;;;29.03;nan;102557.28;5018815;28;19994;-85
2023/09/05 07:59:08;;;;;;;;;;;;;;;29.23;nan;102566.78;5015383;28;20008;-85
2023/09/05 08:01:33;;;;;;;;;;;;;;;29.40;nan;102554.84;5018781;28;20047;-84
2023/09/05 08:03:58;;;;;;;;;;;;;;;29.48;nan;102548.53;5020044;28;19928;-84
2023/09/05 08:06:23;;;;;;;;;;;;;;;29.62;nan;102549.06;5020536;28;20343;-85
2023/09/05 08:08:49;;;;;;;;;;;;;;;29.77;nan;102559.53;5016173;28;19920;-85
2023/09/05 08:11:14;;;;;;;;;;;;;;;29.93;nan;102556.19;5021664;28;20608;-85
2023/09/05 08:13:40;;;;;;;;;;;;;;;29.99;nan;102565.91;5014491;28;19952;-84
2023/09/05 08:16:05;;;;;;;;;;;;;;;30.01;nan;102564.41;5012853;28;19925;-84
2023/09/05 08:18:31;;;;;;;;;;;;;;;30.13;nan;102560.91;5013218;28;19921;-86
2023/09/05 08:20:57;;;;;;;;;;;;;;;30.18;nan;102568.22;5011254;28;20432;-85
2023/09/05 08:23:23;;;;;;;;;;;;;;;30.34;nan;102572.78;5021819;28;19948;-85
2023/09/05 08:25:51;;;;;;;;;;;;;;;30.46;nan;102569.25;5008485;28;19926;-85
2023/09/05 08:28:16;;;;;;;;;;;;;;;30.56;nan;102573.56;5014486;28;20003;-85
2023/09/05 08:30:41;;;;;;;;;;;;;;;30.65;nan;102571.53;5018409;28;19920;-85
2023/09/05 08:33:07;;;;;;;;;;;;;;;30.74;nan;102569.50;5014872;28;19925;-86
2023/09/05 08:35:32;;;;;;;;;;;;;;;30.80;nan;102573.66;5016488;28;20150;-86
2023/09/05 08:38:02;;;;;;;;;;;;;;;30.80;nan;102564.53;5014168;28;19928;-85
2023/09/05 08:40:28;;;;;;;;;;;;;;;30.85;nan;102553.25;5014052;28;19921;-85
2023/09/05 08:42:53;;;;;;;;;;;;;;;30.84;nan;102568.25;5011901;28;20455;-83
2023/09/05 08:45:25;;;;;;;;;;;;;;;30.74;nan;102555.66;5014070;28;20313;-84
2023/09/05 08:47:54;;;;;;;;;;;;;;;30.75;nan;102562.00;5008092;28;19960;-84
2023/09/05 08:50:19;;;;;;;;;;;;;;;30.71;nan;102548.06;5006257;28;19929;-85
2023/09/05 08:52:46;;;;;;;;;;;;;;;30.73;nan;102547.72;5015465;28;20021;-84
2023/09/05 08:55:12;;;;;;;;;;;;;;;30.84;nan;102537.78;5018539;28;19996;-84
2023/09/05 08:57:40;;;;;;;;;;;;;;;30.95;nan;102544.50;5019070;28;20474;-83
2023/09/05 09:00:09;;;;;;;;;;;;;;;30.99;nan;102534.38;5015518;28;19922;-84
2023/09/05 09:02:37;;;;;;;;;;;;;;;31.10;nan;102537.50;5013927;28;19928;-84
2023/09/05 09:05:02;;;;;;;;;;;;;;;31.21;nan;102530.34;5030930;28;19925;-85
2023/09/05 09:07:29;;;;;;;;;;;;;;;31.33;nan;102530.38;5015206;28;20003;-84
2023/09/05 09:09:55;;;;;;;;;;;;;;;31.42;nan;102525.53;5016569;28;20102;-85
2023/09/05 09:12:30;;;;;;;;;;;;;;;31.54;nan;102525.50;5017777;28;19963;-85
2023/09/05 09:14:56;;;;;;;;;;;;;;;31.69;nan;102537.81;5015412;28;19925;-84
2023/09/05 09:17:23;;;;;;;;;;;;;;;31.63;nan;102517.06;5016867;28;19925;-84
2023/09/05 09:19:52;;;;;;;;;;;;;;;31.72;nan;102525.22;5011475;28;20011;-84
2023/09/05 09:22:21;;;;;;;;;;;;;;;31.88;nan;102525.34;5015963;28;20424;-85
2023/09/05 09:24:47;;;;;;;;;;;;;;;32.09;nan;102520.41;5012217;28;19929;-84
2023/09/05 09:27:18;;;;;;;;;;;;;;;32.26;nan;102522.06;5015192;28;20293;-84
2023/09/05 09:29:51;;;;;;;;;;;;;;;32.34;nan;102521.16;5017783;28;20373;-83
2023/09/05 09:32:19;;;;;;;;;;;;;;;32.37;nan;102525.97;5013347;28;19965;-84
2023/09/05 09:34:44;;;;;;;;;;;;;;;32.42;nan;102525.72;5015504;28;20668;-84
2023/09/05 09:37:10;;;;;;;;;;;;;;;32.40;nan;102522.50;5011722;28;20343;-84
2023/09/05 09:39:35;;;;;;;;;;;;;;;32.36;nan;102532.69;5012068;28;19944;-84
2023/09/05 09:42:01;;;;;;;;;;;;;;;32.34;nan;102529.47;5015598;28;19921;-83
2023/09/05 09:44:32;;;;;;;;;;;;;;;32.35;nan;102531.09;5015734;28;19960;-83
2023/09/05 09:46:58;;;;;;;;;;;;;;;32.41;nan;102530.47;5013756;28;20381;-83
2023/09/05 09:49:24;;;;;;;;;;;;;;;32.42;nan;102526.53;5015760;28;19921;-85
2023/09/05 09:51:53;;;;;;;;;;;;;;;32.39;nan;102526.44;5012617;28;19921;-82
2023/09/05 09:54:21;;;;;;;;;;;;;;;32.37;nan;102521.25;5010103;28;19917;-82
2023/09/05 09:56:47;;;;;;;;;;;;;;;32.31;nan;102525.41;5012782;28;19964;-82
2023/09/05 09:59:16;;;;;;;;;;;;;;;32.32;nan;102520.69;5020845;28;20004;-84
2023/09/05 10:01:42;;;;;;;;;;;;;;;32.34;nan;102519.19;5021765;28;20055;-83
2023/09/05 10:04:07;;;;;;;;;;;;;;;32.47;nan;102523.47;5035964;28;19922;-82
2023/09/05 10:06:33;;;;;;;;;;;;;;;32.57;nan;102515.81;5020175;28;19932;-82
2023/09/05 10:09:00;;;;;;;;;;;;;;;32.55;nan;102507.84;5017129;28;19921;-83
2023/09/05 10:11:25;;;;;;;;;;;;;;;32.54;nan;102509.00;5021918;28;19921;-81
2023/09/05 10:13:51;;;;;;;;;;;;;;;32.47;nan;102497.72;5018199;28;20208;-82
2023/09/05 10:16:17;;;;;;;;;;;;;;;32.51;nan;102504.19;5015901;28;19932;-82
2023/09/05 10:18:43;;;;;;;;;;;;;;;32.60;nan;102495.66;5013531;28;19951;-83
2023/09/05 10:21:09;;;;;;;;;;;;;;;32.81;nan;102492.66;5014292;28;20053;-82
2023/09/05 10:23:36;;;;;;;;;;;;;;;32.91;nan;102494.91;5019536;28;19972;-83
2023/09/05 10:26:05;;;;;;;;;;;;;;;32.98;nan;102489.53;5018091;28;20039;-84
2023/09/05 10:28:31;;;;;;;;;;;;;;;33.03;nan;102490.03;5019364;28;20046;-83
2023/09/05 10:31:05;;;;;;;;;;;;;;;33.17;nan;102489.56;5019827;28;19925;-84
2023/09/05 10:33:35;;;;;;;;;;;;;;;33.20;nan;102486.06;5017861;28;20428;-84
2023/09/05 10:36:02;;;;;;;;;;;;;;;33.05;nan;102476.63;5015728;28;19943;-82
2023/09/05 10:38:28;;;;;;;;;;;;;;;33.02;nan;102479.28;5015327;28;19975;-82
2023/09/05 10:40:53;;;;;;;;;;;;;;;33.02;nan;102470.97;5015557;28;19928;-84
2023/09/05 10:43:20;;;;;;;;;;;;;;;33.24;nan;102462.00;5017455;28;19921;-84
2023/09/05 10:45:53;;;;;;;;;;;;;;;33.48;nan;102462.94;5015692;28;20383;-83
2023/09/05 10:48:30;;;;;;;;;;;;;;;33.70;nan;102456.66;5020312;28;19917;-83
2023/09/05 10:51:10;;;;;;;;;;;;;;;33.85;nan;102446.66;5014868;28;19972;-85
2023/09/05 10:53:42;;;;;;;;;;;;;;;33.96;nan;102452.44;5017735;28;19928;-82
2023/09/05 10:56:26;;;;;;;;;;;;;;;34.05;nan;102450.22;5017879;28;20377;-82
2023/09/05 10:58:53;;;;;;;;;;;;;;;34.05;nan;102456.56;5016538;28;19929;-82
2023/09/05 11:01:34;;;;;;;;;;;;;;;34.12;nan;102453.16;5018565;28;20436;-82
2023/09/05 11:04:03;;;;;;;;;;;;;;;34.24;nan;102458.50;5021704;28;20004;-82
2023/09/05 11:06:29;;;;;;;;;;;;;;;34.30;nan;102451.50;5018946;28;19921;-82
2023/09/05 11:09:04;;;;;;;;;;;;;;;34.34;nan;102446.00;5018254;28;19927;-82
2023/09/05 11:11:29;;;;;;;;;;;;;;;34.28;nan;102455.78;5019474;28;19920;-83
2023/09/05 11:13:55;;;;;;;;;;;;;;;34.17;nan;102445.28;5016982;28;19975;-82
2023/09/05 11:16:21;;;;;;;;;;;;;;;33.99;nan;102438.59;5022749;28;20381;-82
2023/09/05 11:18:55;;;;;;;;;;;;;;;33.93;nan;102437.25;5015601;28;19925;-81
2023/09/05 11:21:22;;;;;;;;;;;;;;;33.96;nan;102435.75;5018795;28;20336;-82
2023/09/05 11:23:54;;;;;;;;;;;;;;;34.04;nan;102432.72;5015767;28;20499;-82
2023/09/05 11:26:20;;;;;;;;;;;;;;;34.20;nan;102429.84;5014511;28;19925;-82
2023/09/05 11:28:51;;;;;;;;;;;;;;;34.29;nan;102433.16;5018919;28;19960;-83
2023/09/05 11:31:16;;;;;;;;;;;;;;;34.34;nan;102426.50;5021276;28;19932;-83
2023/09/05 11:33:42;;;;;;;;;;;;;;;34.50;nan;102436.38;5017195;28;20111;-82
2023/09/05 11:36:07;;;;;;;;;;;;;;;34.57;nan;102435.69;5021571;28;19925;-82
2023/09/05 11:38:49;;;;;;;;;;;;;;;34.58;nan;102428.13;5015480;28;19928;-82
2023/09/05 11:41:15;;;;;;;;;;;;;;;34.47;nan;102428.78;5019313;28;19917;-83
2023/09/05 11:43:47;;;;;;;;;;;;;;;34.43;nan;102435.44;5018806;28;20549;-83
2023/09/05 11:46:13;;;;;;;;;;;;;;;34.41;nan;102426.66;5018830;28;20466;-82
2023/09/05 11:48:38;;;;;;;;;;;;;;;34.43;nan;102419.53;5015967;28;20010;-82
2023/09/05 11:51:04;;;;;;;;;;;;;;;34.47;nan;102427.94;5012538;28;19918;-82
2023/09/05 11:53:29;;;;;;;;;;;;;;;34.47;nan;102416.81;5017311;28;20646;-82
2023/09/05 11:55:55;;;;;;;;;;;;;;;34.59;nan;102413.84;5032575;28;19921;-82
2023/09/05 11:58:20;;;;;;;;;;;;;;;34.77;nan;102419.69;5013182;28;19928;-82
2023/09/05 12:00:45;;;;;;;;;;;;;;;35.02;nan;102409.78;5023002;28;20308;-82
2023/09/05 12:03:14;;;;;;;;;;;;;;;35.26;nan;102402.91;5014981;28;20181;-83
2023/09/05 12:05:41;;;;;;;;;;;;;;;35.36;nan;102404.25;5013395;28;19941;-83
2023/09/05 12:08:06;;;;;;;;;;;;;;;35.41;nan;102403.94;5016107;28;20397;-82
2023/09/05 12:10:55;;;;;;;;;;;;;;;35.32;nan;102406.16;5018826;28;19922;-81
2023/09/05 12:13:39;;;;;;;;;;;;;;;35.05;nan;102392.31;5016229;28;19955;-81
2023/09/05 12:16:08;;;;;;;;;;;;;;;34.96;nan;102394.53;5017439;28;19939;-81
2023/09/05 12:18:33;;;;;;;;;;;;;;;35.09;nan;102378.41;5016688;28;19929;-82
2023/09/05 12:21:02;;;;;;;;;;;;;;;35.33;nan;102382.69;5008933;28;20545;-82
2023/09/05 12:23:28;;;;;;;;;;;;;;;35.50;nan;102390.50;5018658;28;19982;-83
2023/09/05 12:25:54;;;;;;;;;;;;;;;35.59;nan;102381.84;5019442;28;20249;-83
2023/09/05 12:28:20;;;;;;;;;;;;;;;35.73;nan;102374.47;5016695;28;20403;-83
2023/09/05 12:30:47;;;;;;;;;;;;;;;35.87;nan;102371.03;5015941;28;19924;-83
2023/09/05 12:33:13;;;;;;;;;;;;;;;36.15;nan;102378.88;5012053;28;19932;-84
2023/09/05 12:35:39;;;;;;;;;;;;;;;36.35;nan;102373.88;5017199;28;19951;-84
2023/09/05 12:38:04;;;;;;;;;;;;;;;36.43;nan;102374.72;5017053;28;20008;-84
2023/09/05 12:40:32;;;;;;;;;;;;;;;36.43;nan;102374.72;5016455;28;20131;-84
2023/09/05 12:42:58;;;;;;;;;;;;;;;36.53;nan;102363.66;5030458;28;19921;-84
2023/09/05 12:45:24;;;;;;;;;;;;;;;36.76;nan;102354.22;5018627;28;19933;-84
2023/09/05 12:47:51;;;;;;;;;;;;;;;36.82;nan;102353.50;5026382;28;19917;-84
2023/09/05 12:50:28;;;;;;;;;;;;;;;36.90;nan;102352.34;5017701;28;20136;-84
2023/09/05 12:52:54;;;;;;;;;;;;;;;36.86;nan;102357.13;5014182;28;19921;-84
2023/09/05 12:55:20;;;;;;;;;;;;;;;37.03;nan;102346.44;5017304;28;19929;-84
2023/09/05 12:57:46;;;;;;;;;;;;;;;37.20;nan;102345.69;5014697;28;19932;-84